Time;durP1;ratioP1;P1;durP2;ratioP2;P2;SDS_P1;SDS_P2;PMS_P1;PMS_P2;Temp;Humidity;BMP_temperature;BMP_pressure;BME280_temperature;BME280_humidity;BME280_pressure;Samples;Min_cycle;Max_cycle;Signal;HPM_P1;HPM_P2
2022/10/24 00:02:25;;;;;;;9.70;4.60;;;13.20;99.90;;;;;;5078547;28;20035;-59
2022/10/24 00:04:50;;;;;;;9.25;4.00;;;13.00;99.90;;;;;;5070329;28;20036;-59
2022/10/24 00:07:16;;;;;;;10.15;5.35;;;13.30;99.90;;;;;;5070123;28;20044;-60
2022/10/24 00:09:42;;;;;;;8.25;3.80;;;13.10;99.90;;;;;;5071971;28;20397;-60
2022/10/24 00:12:07;;;;;;;8.43;4.47;;;13.50;99.90;;;;;;5076073;28;20105;-60
2022/10/24 00:14:34;;;;;;;8.73;3.95;;;13.30;99.90;;;;;;5078186;28;20459;-60
2022/10/24 00:17:00;;;;;;;9.13;3.67;;;13.20;99.90;;;;;;5078082;28;20044;-60
2022/10/24 00:19:25;;;;;;;9.38;3.85;;;13.20;99.90;;;;;;5078522;28;20404;-60
2022/10/24 00:21:51;;;;;;;8.75;3.47;;;13.90;99.90;;;;;;5078564;28;20044;-59
2022/10/24 00:24:17;;;;;;;10.20;3.00;;;13.70;99.90;;;;;;5077431;28;20397;-59
2022/10/24 00:26:43;;;;;;;10.15;3.15;;;13.90;99.90;;;;;;5083101;28;20039;-59
2022/10/24 00:29:09;;;;;;;10.65;4.35;;;13.20;99.90;;;;;;5070002;28;20037;-59
2022/10/24 00:31:35;;;;;;;6.90;2.95;;;13.00;99.90;;;;;;5084084;28;20504;-58
2022/10/24 00:34:01;;;;;;;7.55;3.53;;;13.00;99.90;;;;;;5078684;28;20113;-59
2022/10/24 00:36:27;;;;;;;8.82;3.30;;;;;;;;;;5052090;28;20120;-59
2022/10/24 00:38:54;;;;;;;7.80;3.28;;;13.30;99.90;;;;;;5082570;28;20107;-59
2022/10/24 00:41:26;;;;;;;7.40;3.03;;;13.40;99.90;;;;;;5081507;28;20066;-59
2022/10/24 00:44:17;;;;;;;7.55;2.70;;;13.80;99.90;;;;;;5086738;28;20033;-59
2022/10/24 00:47:03;;;;;;;6.10;3.20;;;13.20;99.90;;;;;;5073967;28;20083;-59
2022/10/24 00:49:36;;;;;;;9.48;3.38;;;13.00;99.90;;;;;;5071441;28;20086;-59
2022/10/24 00:52:06;;;;;;;8.07;3.72;;;13.10;99.90;;;;;;5078571;28;20040;-59
2022/10/24 00:54:33;;;;;;;9.77;2.70;;;13.40;99.90;;;;;;5077970;28;20068;-59
2022/10/24 00:57:31;;;;;;;13.07;3.67;;;13.00;99.90;;;;;;5078260;28;20414;-59
2022/10/24 01:00:03;;;;;;;7.47;2.90;;;13.20;99.90;;;;;;5071798;28;20132;-59
2022/10/24 01:02:31;;;;;;;10.95;3.15;;;13.20;99.90;;;;;;5080082;28;20036;-59
2022/10/24 01:04:57;;;;;;;9.93;2.90;;;13.30;99.90;;;;;;5084508;28;20078;-59
2022/10/24 01:07:52;;;;;;;7.85;2.85;;;13.30;99.90;;;;;;5079561;28;20487;-60
2022/10/24 01:10:26;;;;;;;;;;;13.30;99.90;;;;;;5073864;28;20556;-59
2022/10/24 01:13:13;;;;;;;9.80;3.05;;;13.10;99.90;;;;;;5071182;28;19999;-59
2022/10/24 01:15:44;;;;;;;7.10;2.80;;;13.00;99.90;;;;;;5081116;28;20068;-59
2022/10/24 01:18:12;;;;;;;8.38;2.50;;;13.00;99.90;;;;;;5070465;28;20043;-59
2022/10/24 01:20:47;;;;;;;11.80;3.20;;;13.10;99.90;;;;;;5066115;28;20401;-59
2022/10/24 01:23:43;;;;;;;8.00;3.10;;;13.40;99.90;;;;;;5069800;28;20051;-59
2022/10/24 01:26:30;;;;;;;8.88;3.40;;;;;;;;;;5076328;28;20032;-59
2022/10/24 01:29:27;;;;;;;7.93;2.90;;;14.20;99.90;;;;;;5065014;28;20056;-59
2022/10/24 01:32:03;;;;;;;9.73;3.00;;;13.10;99.90;;;;;;5065256;28;20041;-59
2022/10/24 01:34:40;;;;;;;8.55;3.00;;;14.20;99.90;;;;;;5073290;28;20044;-57
2022/10/24 01:37:14;;;;;;;9.10;2.83;;;13.80;99.90;;;;;;5072441;28;20035;-59
2022/10/24 01:39:45;;;;;;;7.10;3.05;;;13.30;99.90;;;;;;5086973;28;20470;-59
2022/10/24 01:42:15;;;;;;;11.43;3.88;;;13.60;99.90;;;;;;5061289;28;20478;-59
2022/10/24 01:44:46;;;;;;;8.63;2.95;;;13.60;99.90;;;;;;5067899;28;20054;-58
2022/10/24 01:47:20;;;;;;;9.05;3.17;;;13.80;99.90;;;;;;5062157;28;20406;-59
2022/10/24 01:49:53;;;;;;;10.05;3.35;;;13.40;99.90;;;;;;5069309;28;20402;-59
2022/10/24 01:52:20;;;;;;;8.60;3.10;;;13.60;99.90;;;;;;5067778;28;20060;-59
2022/10/24 01:54:47;;;;;;;8.98;3.13;;;13.50;99.90;;;;;;5072567;28;20045;-59
2022/10/24 01:57:13;;;;;;;9.60;3.30;;;14.40;99.90;;;;;;5071174;28;20398;-59
2022/10/24 01:59:43;;;;;;;10.57;3.08;;;14.60;99.90;;;;;;5081371;28;20043;-58
2022/10/24 02:02:26;;;;;;;6.72;3.30;;;14.10;99.90;;;;;;5074623;28;20648;-59
2022/10/24 02:05:24;;;;;;;10.10;3.00;;;13.50;99.90;;;;;;5071863;28;20037;-59
2022/10/24 02:07:56;;;;;;;9.18;3.95;;;14.10;99.90;;;;;;5079053;28;20044;-59
2022/10/24 02:10:30;;;;;;;8.60;3.20;;;13.70;99.90;;;;;;5076785;28;20071;-59
2022/10/24 02:13:12;;;;;;;9.10;3.30;;;13.80;99.90;;;;;;5068912;28;20111;-60
2022/10/24 02:15:48;;;;;;;6.32;2.80;;;13.60;99.90;;;;;;5064037;28;20126;-59
2022/10/24 02:18:15;;;;;;;9.73;3.50;;;14.20;99.90;;;;;;5071472;28;20506;-59
2022/10/24 02:20:56;;;;;;;9.43;3.83;;;14.70;99.90;;;;;;5077690;28;20036;-59
2022/10/24 02:23:37;;;;;;;8.63;3.50;;;14.20;99.90;;;;;;5075589;28;20082;-60
2022/10/24 02:26:08;;;;;;;9.23;3.30;;;13.90;99.90;;;;;;5074125;28;20040;-59
2022/10/24 02:28:39;;;;;;;8.25;3.05;;;13.90;99.90;;;;;;5079198;28;20048;-59
2022/10/24 02:31:16;;;;;;;11.35;3.45;;;14.00;99.90;;;;;;5071499;28;20035;-59
2022/10/24 02:33:44;;;;;;;11.70;4.20;;;14.70;99.90;;;;;;5072129;28;20237;-60
2022/10/24 02:36:12;;;;;;;8.60;2.97;;;14.30;99.90;;;;;;5071828;28;20037;-59
2022/10/24 02:38:41;;;;;;;9.38;3.30;;;14.40;99.90;;;;;;5080772;28;20067;-59
2022/10/24 02:41:11;;;;;;;7.63;3.30;;;13.70;99.90;;;;;;5053905;28;20040;-59
2022/10/24 02:43:39;;;;;;;10.23;3.70;;;14.30;99.90;;;;;;5072605;28;20449;-59
2022/10/24 02:46:06;;;;;;;10.90;3.45;;;14.80;99.90;;;;;;5090870;28;20071;-60
2022/10/24 02:48:37;;;;;;;9.00;3.05;;;14.30;99.90;;;;;;5074412;28;20041;-60
2022/10/24 02:51:03;;;;;;;11.40;3.67;;;13.80;99.90;;;;;;5078684;28;20036;-59
2022/10/24 02:53:29;;;;;;;9.23;3.40;;;14.20;99.90;;;;;;5064921;28;20087;-59
2022/10/24 02:55:55;;;;;;;7.25;3.60;;;14.20;99.90;;;;;;5071356;28;20069;-60
2022/10/24 02:58:20;;;;;;;8.90;2.70;;;15.50;99.90;;;;;;5068902;28;20162;-60
2022/10/24 03:00:46;;;;;;;8.00;3.42;;;14.50;99.90;;;;;;5073119;28;20051;-60
2022/10/24 03:03:12;;;;;;;9.32;3.30;;;14.00;99.90;;;;;;5071564;28;20446;-60
2022/10/24 03:05:37;;;;;;;10.10;3.28;;;13.90;99.90;;;;;;5071224;28;20169;-61
2022/10/24 03:08:03;;;;;;;9.50;3.30;;;14.30;99.90;;;;;;5084089;28;20040;-60
2022/10/24 03:10:29;;;;;;;10.00;3.55;;;14.00;99.90;;;;;;5072021;28;20123;-60
2022/10/24 03:12:55;;;;;;;9.18;3.20;;;13.50;99.90;;;;;;5057063;28;20063;-60
2022/10/24 03:15:20;;;;;;;9.35;2.65;;;14.60;99.90;;;;;;5082714;28;20402;-60
2022/10/24 03:17:48;;;;;;;7.78;3.05;;;;;;;;;;5087588;22;20052;-65
2022/10/24 03:20:14;;;;;;;11.27;3.20;;;14.00;99.90;;;;;;5072898;28;20086;-65
2022/10/24 03:22:40;;;;;;;9.63;3.28;;;14.70;99.90;;;;;;5082767;28;20032;-65
2022/10/24 03:25:06;;;;;;;8.05;3.13;;;13.60;99.90;;;;;;5069855;28;20567;-65
2022/10/24 03:27:32;;;;;;;11.93;3.20;;;14.10;99.90;;;;;;5056412;28;20037;-65
2022/10/24 03:29:59;;;;;;;9.38;3.17;;;14.50;99.90;;;;;;5058844;28;20037;-65
2022/10/24 03:32:25;;;;;;;10.90;3.60;;;14.40;99.90;;;;;;5044894;28;20043;-65
2022/10/24 03:34:51;;;;;;;11.88;3.60;;;14.20;99.90;;;;;;5057319;22;20052;-65
2022/10/24 03:37:16;;;;;;;11.77;4.28;;;14.20;99.90;;;;;;5034835;28;20037;-63
2022/10/24 03:39:45;;;;;;;9.48;3.05;;;;;;;;;;5039151;28;20410;-64
2022/10/24 03:42:11;;;;;;;10.55;3.25;;;14.50;99.90;;;;;;5034622;28;20041;-63
2022/10/24 03:44:42;;;;;;;10.60;3.72;;;14.30;99.90;;;;;;5036720;28;20052;-64
2022/10/24 03:47:11;;;;;;;16.40;3.13;;;13.70;99.90;;;;;;5037779;28;20037;-63
2022/10/24 03:49:36;;;;;;;10.63;2.92;;;14.50;99.90;;;;;;5039689;28;20511;-64
2022/10/24 03:52:02;;;;;;;12.05;2.65;;;;;;;;;;5032656;28;20120;-64
2022/10/24 03:54:28;;;;;;;8.02;2.83;;;14.00;99.90;;;;;;5037647;28;20045;-64
2022/10/24 03:56:59;;;;;;;18.17;3.30;;;14.30;99.90;;;;;;5037436;28;20091;-64
2022/10/24 03:59:28;;;;;;;10.30;2.75;;;14.50;99.90;;;;;;5034352;28;20045;-64
2022/10/24 04:01:59;;;;;;;8.20;2.80;;;14.60;99.90;;;;;;5040963;28;20105;-64
2022/10/24 04:04:25;;;;;;;6.25;2.67;;;14.20;99.90;;;;;;5036964;28;20063;-64
2022/10/24 04:06:51;;;;;;;12.50;2.90;;;;;;;;;;5036746;28;20034;-64
2022/10/24 04:09:20;;;;;;;9.70;2.90;;;14.10;99.90;;;;;;5038385;28;20033;-63
2022/10/24 04:11:50;;;;;;;11.27;4.05;;;14.10;99.90;;;;;;5035744;28;20036;-64
2022/10/24 04:14:15;;;;;;;9.90;2.88;;;14.20;99.90;;;;;;5047270;28;20617;-64
2022/10/24 04:16:41;;;;;;;9.45;3.00;;;14.00;99.90;;;;;;5046616;28;20030;-64
2022/10/24 04:19:09;;;;;;;10.68;3.33;;;;;;;;;;5043263;28;20539;-64
2022/10/24 04:21:37;;;;;;;10.30;2.55;;;13.70;99.90;;;;;;5047622;28;20049;-64
2022/10/24 04:24:09;;;;;;;10.25;2.90;;;13.90;99.90;;;;;;5039285;28;20045;-64
2022/10/24 04:26:34;;;;;;;8.02;2.47;;;14.10;99.90;;;;;;5048390;28;20037;-66
2022/10/24 04:29:00;;;;;;;7.15;2.55;;;;;;;;;;5045025;28;20109;-64
2022/10/24 04:31:26;;;;;;;6.75;2.58;;;14.60;99.90;;;;;;5047318;28;20037;-63
2022/10/24 04:33:55;;;;;;;10.02;2.67;;;14.20;99.90;;;;;;5046174;28;20040;-64
2022/10/24 04:36:20;;;;;;;6.72;2.35;;;13.40;99.90;;;;;;5045033;28;20545;-63
2022/10/24 04:38:46;;;;;;;9.75;2.80;;;13.70;99.90;;;;;;5039866;28;20044;-64
2022/10/24 04:41:11;;;;;;;8.45;2.65;;;13.70;99.90;;;;;;5041230;28;20462;-66
2022/10/24 04:43:37;;;;;;;7.68;2.65;;;14.00;99.90;;;;;;5047170;28;20045;-64
2022/10/24 04:46:05;;;;;;;9.27;2.47;;;13.60;99.90;;;;;;5052112;28;20487;-64
2022/10/24 04:48:32;;;;;;;8.80;2.63;;;;;;;;;;5039726;28;20407;-64
2022/10/24 04:50:57;;;;;;;5.40;2.13;;;14.20;99.90;;;;;;5037463;28;20123;-64
2022/10/24 04:53:23;;;;;;;8.82;3.08;;;14.10;99.90;;;;;;5039095;28;20503;-64
2022/10/24 04:55:49;;;;;;;10.02;2.90;;;14.10;99.90;;;;;;5036488;28;20547;-65
2022/10/24 04:58:14;;;;;;;7.50;2.50;;;13.50;99.90;;;;;;5035254;28;20384;-64
2022/10/24 05:00:42;;;;;;;8.13;2.47;;;14.30;99.90;;;;;;5038685;28;20041;-63
2022/10/24 05:03:08;;;;;;;8.65;2.60;;;;;;;;;;5048666;28;20063;-65
2022/10/24 05:05:33;;;;;;;8.13;2.20;;;14.40;99.90;;;;;;5048318;28;20049;-64
2022/10/24 05:07:59;;;;;;;8.88;2.90;;;;;;;;;;5047777;28;20495;-63
2022/10/24 05:10:25;;;;;;;7.10;2.22;;;;;;;;;;5049359;28;20475;-64
2022/10/24 05:12:51;;;;;;;6.30;2.03;;;;;;;;;;5046708;28;20036;-63
2022/10/24 05:15:17;;;;;;;7.80;2.17;;;14.40;99.90;;;;;;5042517;28;20033;-64
2022/10/24 05:17:43;;;;;;;7.78;1.95;;;14.90;99.90;;;;;;5037658;28;20380;-64
2022/10/24 05:20:09;;;;;;;7.75;2.45;;;14.60;99.90;;;;;;5043562;28;20037;-64
2022/10/24 05:22:35;;;;;;;6.90;1.95;;;14.60;99.90;;;;;;5046535;28;20041;-65
2022/10/24 05:25:01;;;;;;;9.45;2.10;;;14.70;99.90;;;;;;5035943;28;20483;-64
2022/10/24 05:27:29;;;;;;;9.35;2.08;;;14.90;99.90;;;;;;5039725;28;20048;-67
2022/10/24 05:29:55;;;;;;;6.53;1.50;;;14.80;99.90;;;;;;5036753;28;20045;-65
2022/10/24 05:32:24;;;;;;;7.30;2.00;;;14.70;99.90;;;;;;5052760;28;20125;-64
2022/10/24 05:34:50;;;;;;;8.65;2.13;;;14.90;99.90;;;;;;5048425;28;20037;-64
2022/10/24 05:37:16;;;;;;;7.10;2.20;;;15.10;99.90;;;;;;5044186;28;20398;-65
2022/10/24 05:39:42;;;;;;;10.93;2.65;;;;;;;;;;5043969;28;20041;-64
2022/10/24 05:42:09;;;;;;;8.63;2.00;;;;;;;;;;5037072;28;20116;-64
2022/10/24 05:44:36;;;;;;;9.27;2.33;;;15.10;99.90;;;;;;5039905;28;20425;-64
2022/10/24 05:47:01;;;;;;;11.68;1.95;;;15.10;99.90;;;;;;5035743;28;20104;-64
2022/10/24 05:49:27;;;;;;;8.32;2.20;;;15.00;99.90;;;;;;5037060;28;20491;-64
2022/10/24 05:51:55;;;;;;;6.85;2.25;;;14.40;99.90;;;;;;5040718;28;20080;-66
2022/10/24 05:54:24;;;;;;;11.90;1.98;;;15.00;99.90;;;;;;5037483;28;20040;-65
2022/10/24 05:56:50;;;;;;;8.80;2.30;;;;;;;;;;5041062;28;20033;-64
2022/10/24 05:59:16;;;;;;;7.22;2.00;;;14.70;99.90;;;;;;5036223;28;20073;-64
2022/10/24 06:01:42;;;;;;;15.27;4.03;;;15.00;99.90;;;;;;5039171;28;20099;-65
2022/10/24 06:04:08;;;;;;;8.07;1.75;;;15.10;99.90;;;;;;5035600;28;20112;-64
2022/10/24 06:06:38;;;;;;;10.77;2.58;;;;;;;;;;5038492;28;20049;-64
2022/10/24 06:09:04;;;;;;;6.47;2.35;;;14.30;99.90;;;;;;5046786;28;20129;-66
2022/10/24 06:11:30;;;;;;;7.25;1.92;;;14.70;99.90;;;;;;5045530;28;20044;-64
2022/10/24 06:13:55;;;;;;;7.03;1.95;;;14.70;99.90;;;;;;5045095;28;20398;-63
2022/10/24 06:16:26;;;;;;;7.18;2.10;;;14.60;99.90;;;;;;5043067;28;20487;-64
2022/10/24 06:18:52;;;;;;;10.57;2.53;;;14.70;99.90;;;;;;5038410;28;20033;-65
2022/10/24 06:21:21;;;;;;;9.90;2.42;;;;;;;;;;5044293;28;20506;-63
2022/10/24 06:23:47;;;;;;;7.35;2.17;;;14.80;99.90;;;;;;5048661;28;20055;-64
2022/10/24 06:26:13;;;;;;;6.15;1.70;;;14.80;99.90;;;;;;5050404;28;20045;-64
2022/10/24 06:28:40;;;;;;;8.13;1.95;;;;;;;;;;5042093;28;20407;-65
2022/10/24 06:31:06;;;;;;;6.45;2.22;;;14.80;99.90;;;;;;5048194;28;20808;-63
2022/10/24 06:33:35;;;;;;;10.57;2.33;;;14.80;99.90;;;;;;5052005;28;20430;-63
2022/10/24 06:36:04;;;;;;;8.55;2.08;;;14.70;99.90;;;;;;5047567;28;20041;-62
2022/10/24 06:38:30;;;;;;;7.13;2.13;;;;;;;;;;5041881;28;20052;-63
2022/10/24 06:40:56;;;;;;;8.80;1.88;;;14.80;99.90;;;;;;5037013;28;20509;-64
2022/10/24 06:43:22;;;;;;;9.05;1.67;;;14.60;99.90;;;;;;5041683;28;20039;-63
2022/10/24 06:45:47;;;;;;;7.63;1.67;;;15.00;99.90;;;;;;5048484;28;20041;-64
2022/10/24 06:48:13;;;;;;;7.93;2.00;;;14.90;99.90;;;;;;5036654;28;20479;-65
2022/10/24 06:50:39;;;;;;;8.13;1.92;;;14.90;99.90;;;;;;5041180;28;20036;-63
2022/10/24 06:53:08;;;;;;;8.07;2.25;;;15.00;99.90;;;;;;5035638;28;20038;-64
2022/10/24 06:55:37;;;;;;;6.68;1.70;;;14.90;99.90;;;;;;5048754;28;20056;-64
2022/10/24 06:58:04;;;;;;;6.15;1.95;;;14.90;99.90;;;;;;5030569;28;20520;-64
2022/10/24 07:00:33;;;;;;;6.13;1.42;;;15.00;99.90;;;;;;5040584;28;20041;-64
2022/10/24 07:02:59;;;;;;;6.07;1.50;;;15.10;99.90;;;;;;5030016;28;20403;-64
2022/10/24 07:05:25;;;;;;;6.40;1.60;;;15.30;99.90;;;;;;5038028;28;20045;-64
2022/10/24 07:07:50;;;;;;;6.65;1.40;;;14.90;99.90;;;;;;5037411;28;20079;-64
2022/10/24 07:10:16;;;;;;;6.32;1.55;;;;;;;;;;5036202;28;20059;-63
2022/10/24 07:12:45;;;;;;;5.22;1.35;;;;;;;;;;5039446;28;20041;-64
2022/10/24 07:15:11;;;;;;;8.00;2.30;;;15.20;99.90;;;;;;5033987;28;20033;-66
2022/10/24 07:17:39;;;;;;;7.53;2.00;;;15.50;99.90;;;;;;5038857;28;20683;-63
2022/10/24 07:20:08;;;;;;;6.22;1.42;;;15.00;99.90;;;;;;5030749;28;20073;-64
2022/10/24 07:22:34;;;;;;;8.13;1.95;;;15.40;99.90;;;;;;5042006;28;20045;-64
2022/10/24 07:25:04;;;;;;;6.10;1.30;;;15.10;99.90;;;;;;5045727;28;20402;-65
2022/10/24 07:27:30;;;;;;;6.80;2.03;;;15.00;99.90;;;;;;5035662;28;20506;-63
2022/10/24 07:29:55;;;;;;;11.07;1.55;;;15.40;99.90;;;;;;5033852;28;20033;-64
2022/10/24 07:32:21;;;;;;;10.43;2.30;;;14.90;99.90;;;;;;5035223;28;20045;-64
2022/10/24 07:34:46;;;;;;;5.90;1.40;;;15.40;99.90;;;;;;5046151;28;20486;-64
2022/10/24 07:37:16;;;;;;;10.18;1.88;;;;;;;;;;5034013;28;20132;-64
2022/10/24 07:39:42;;;;;;;9.55;2.13;;;15.30;99.90;;;;;;5047097;28;20076;-64
2022/10/24 07:42:11;;;;;;;7.57;1.60;;;15.00;99.90;;;;;;5049465;28;20033;-62
2022/10/24 07:44:37;;;;;;;6.75;1.67;;;;;;;;;;5044517;28;20033;-64
2022/10/24 07:47:13;;;;;;;8.10;2.08;;;;;;;;;;5047853;28;20434;-64
2022/10/24 07:49:39;;;;;;;11.63;1.92;;;15.90;99.90;;;;;;5039683;28;20488;-64
2022/10/24 07:52:05;;;;;;;6.90;1.80;;;16.00;99.90;;;;;;5039848;28;20124;-64
2022/10/24 07:54:30;;;;;;;13.88;2.03;;;15.30;99.90;;;;;;5041963;28;20087;-67
2022/10/24 07:56:57;;;;;;;6.10;1.80;;;;;;;;;;5041022;28;20129;-64
2022/10/24 07:59:22;;;;;;;8.27;1.52;;;15.50;99.90;;;;;;5038535;28;20041;-63
2022/10/24 08:01:48;;;;;;;7.45;1.55;;;15.60;99.90;;;;;;5043673;28;20075;-64
2022/10/24 08:04:14;;;;;;;7.18;1.60;;;15.70;99.90;;;;;;5050215;28;20132;-64
2022/10/24 08:06:41;;;;;;;7.88;1.38;;;15.30;99.90;;;;;;5043503;28;20072;-65
2022/10/24 08:09:08;;;;;;;9.95;1.80;;;;;;;;;;5040530;28;20040;-64
2022/10/24 08:11:34;;;;;;;8.48;1.85;;;;;;;;;;5038016;28;20034;-63
2022/10/24 08:14:03;;;;;;;7.85;1.63;;;;;;;;;;5033675;28;20373;-63
2022/10/24 08:16:29;;;;;;;10.57;2.15;;;15.60;99.90;;;;;;5035626;28;20076;-63
2022/10/24 08:18:56;;;;;;;4.63;1.63;;;15.90;99.90;;;;;;5031306;28;20061;-64
2022/10/24 08:21:23;;;;;;;7.43;1.40;;;;;;;;;;5041971;28;20562;-63
2022/10/24 08:23:50;;;;;;;7.15;2.10;;;;;;;;;;5030910;28;20057;-66
2022/10/24 08:26:17;;;;;;;7.03;1.85;;;;;;;;;;5039896;28;20110;-63
2022/10/24 08:28:45;;;;;;;9.85;1.90;;;;;;;;;;5049220;28;20049;-65
2022/10/24 08:31:14;;;;;;;8.05;1.50;;;15.60;99.90;;;;;;5049049;28;20528;-62
2022/10/24 08:33:40;;;;;;;6.60;1.92;;;15.50;99.90;;;;;;5041546;28;20536;-64
2022/10/24 08:36:19;;;;;;;6.20;1.35;;;15.00;99.90;;;;;;5037756;28;20033;-65
2022/10/24 08:38:45;;;;;;;5.72;1.65;;;15.60;99.90;;;;;;5038265;28;20041;-63
2022/10/24 08:41:30;;;;;;;9.95;2.88;;;16.20;99.90;;;;;;5032957;28;20037;-63
2022/10/24 08:43:59;;;;;;;6.65;1.70;;;15.70;99.90;;;;;;5043981;28;20046;-65
2022/10/24 08:46:43;;;;;;;7.35;1.48;;;15.40;99.90;;;;;;5033200;28;20045;-63
2022/10/24 08:49:16;;;;;;;7.95;1.55;;;15.20;99.90;;;;;;5040745;28;20072;-62
2022/10/24 08:51:45;;;;;;;6.13;1.63;;;;;;;;;;5039552;28;20040;-65
2022/10/24 08:54:13;;;;;;;7.47;2.08;;;;;;;;;;5044965;28;20029;-64
2022/10/24 08:56:40;;;;;;;7.18;1.80;;;15.70;99.90;;;;;;5033812;28;20072;-65
2022/10/24 08:59:10;;;;;;;7.10;1.48;;;15.30;99.90;;;;;;5036567;28;20091;-64
2022/10/24 09:01:39;;;;;;;8.95;2.00;;;;;;;;;;5038116;28;20041;-62
2022/10/24 09:04:08;;;;;;;8.13;1.77;;;;;;;;;;5044464;28;20029;-62
2022/10/24 09:06:34;;;;;;;6.55;1.60;;;;;;;;;;5037729;28;20099;-63
2022/10/24 09:09:15;;;;;;;6.60;1.75;;;15.90;99.90;;;;;;5040014;28;20036;-65
2022/10/24 09:11:52;;;;;;;6.25;1.60;;;;;;;;;;5035450;28;20522;-62
2022/10/24 09:14:24;;;;;;;7.50;2.00;;;15.60;99.90;;;;;;5040640;28;20380;-62
2022/10/24 09:16:53;;;;;;;8.13;2.25;;;;;;;;;;5032998;28;20128;-66
2022/10/24 09:19:21;;;;;;;6.82;2.45;;;;;;;;;;5038177;28;20056;-65
2022/10/24 09:21:48;;;;;;;6.60;2.03;;;;;;;;;;5041227;28;20332;-63
2022/10/24 09:24:44;;;;;;;8.98;1.80;;;15.30;99.90;;;;;;5035395;28;20069;-63
2022/10/24 09:27:31;;;;;;;8.30;1.40;;;;;;;;;;5049906;28;20083;-63
2022/10/24 09:29:58;;;;;;;8.77;1.90;;;;;;;;;;5034340;28;20091;-62
2022/10/24 09:32:27;;;;;;;8.85;1.95;;;16.00;99.90;;;;;;5038180;28;20121;-63
2022/10/24 09:34:53;;;;;;;8.75;1.80;;;15.90;99.90;;;;;;5042409;28;20553;-63
2022/10/24 09:37:34;;;;;;;10.63;2.22;;;16.00;99.90;;;;;;5036642;28;20045;-63
2022/10/24 09:40:10;;;;;;;5.97;1.80;;;;;;;;;;5040637;28;20124;-63
2022/10/24 09:42:38;;;;;;;5.93;1.35;;;15.80;99.90;;;;;;5033608;28;20049;-63
2022/10/24 09:45:41;;;;;;;7.13;1.67;;;16.10;99.90;;;;;;5038821;28;20084;-64
2022/10/24 09:48:27;;;;;;;7.53;1.90;;;;;;;;;;5036694;28;20049;-63
2022/10/24 09:50:54;;;;;;;7.75;1.73;;;16.30;99.90;;;;;;5041941;28;20268;-63
2022/10/24 09:53:23;;;;;;;11.75;2.70;;;16.00;99.90;;;;;;5040527;28;20091;-62
2022/10/24 09:55:53;;;;;;;10.00;2.30;;;15.60;99.90;;;;;;5039466;28;20095;-63
2022/10/24 09:58:20;;;;;;;8.13;1.90;;;;;;;;;;5035636;28;20038;-63
2022/10/24 10:00:56;;;;;;;8.52;2.10;;;;;;;;;;5039158;28;20041;-65
2022/10/24 10:03:22;;;;;;;8.63;2.15;;;15.70;99.90;;;;;;5040656;28;20124;-63
2022/10/24 10:05:50;;;;;;;10.88;2.30;;;;;;;;;;5036858;28;20613;-62
2022/10/24 10:08:32;;;;;;;11.20;2.65;;;15.20;99.90;;;;;;5038006;28;20049;-63
2022/10/24 10:11:09;;;;;;;12.35;2.40;;;15.80;99.90;;;;;;5035077;28;20029;-63
2022/10/24 10:13:49;;;;;;;7.40;2.05;;;16.60;99.90;;;;;;5037834;28;20045;-62
2022/10/24 10:16:21;;;;;;;8.98;2.13;;;;;;;;;;5045492;28;20055;-63
2022/10/24 10:18:47;;;;;;;8.45;2.10;;;16.00;99.90;;;;;;5047257;28;20041;-62
2022/10/24 10:21:23;;;;;;;12.05;2.22;;;15.80;99.90;;;;;;5052140;28;20037;-62
2022/10/24 10:23:54;;;;;;;12.18;3.08;;;16.60;99.90;;;;;;5040897;28;20041;-62
2022/10/24 10:26:23;;;;;;;8.70;2.35;;;16.50;99.90;;;;;;5036216;28;20111;-64
2022/10/24 10:29:01;;;;;;;9.90;2.10;;;16.60;99.90;;;;;;5034960;28;20037;-64
2022/10/24 10:31:45;;;;;;;11.88;3.05;;;16.00;99.90;;;;;;5034218;28;20053;-65
2022/10/24 10:34:14;;;;;;;17.30;3.13;;;16.50;99.90;;;;;;5035586;28;20060;-63
2022/10/24 10:36:43;;;;;;;15.40;3.55;;;16.50;99.90;;;;;;5042534;28;20208;-62
2022/10/24 10:39:14;;;;;;;11.48;2.95;;;16.30;99.90;;;;;;5038310;28;20033;-62
2022/10/24 10:42:04;;;;;;;12.35;2.50;;;15.90;99.90;;;;;;5039788;28;20072;-63
2022/10/24 10:44:42;;;;;;;11.40;2.50;;;16.10;99.90;;;;;;5034319;28;20037;-62
2022/10/24 10:47:26;;;;;;;10.57;2.40;;;;;;;;;;5038018;28;20475;-65
2022/10/24 10:49:56;;;;;;;13.80;2.97;;;15.80;99.90;;;;;;5047716;28;20124;-67
2022/10/24 10:52:29;;;;;;;16.35;2.80;;;15.60;99.90;;;;;;5046199;28;20033;-62
2022/10/24 10:54:57;;;;;;;17.23;3.92;;;15.90;99.90;;;;;;5047586;28;20040;-64
2022/10/24 10:57:30;;;;;;;14.10;3.92;;;;;;;;;;5039685;28;20113;-63
2022/10/24 11:00:11;;;;;;;13.90;3.55;;;;;;;;;;5018932;28;20049;-64
2022/10/24 11:02:37;;;;;;;13.70;3.03;;;;;;;;;;5043379;28;20048;-63
2022/10/24 11:05:27;;;;;;;17.40;3.47;;;;;;;;;;5050371;28;20410;-64
2022/10/24 11:08:03;;;;;;;10.15;3.10;;;14.10;99.90;;;;;;5046379;28;20044;-63
2022/10/24 11:10:34;;;;;;;12.10;2.90;;;;;;;;;;5034424;28;20124;-63
2022/10/24 11:13:06;;;;;;;11.13;2.88;;;14.50;99.90;;;;;;5036685;28;20060;-64
2022/10/24 11:15:39;;;;;;;13.07;3.22;;;13.80;99.90;;;;;;5032706;28;20061;-61
2022/10/24 11:18:34;;;;;;;13.70;4.55;;;;;;;;;;5035295;28;20116;-63
2022/10/24 11:21:17;;;;;;;13.30;2.92;;;14.70;99.90;;;;;;5015677;28;20041;-62
2022/10/24 11:23:51;;;;;;;15.82;4.40;;;14.00;99.90;;;;;;5035395;28;20117;-62
2022/10/24 11:26:20;;;;;;;16.13;3.58;;;;;;;;;;5042198;28;20223;-62
2022/10/24 11:28:53;;;;;;;12.20;3.50;;;;;;;;;;5049265;28;20136;-63
2022/10/24 11:31:42;;;;;;;23.38;5.25;;;14.00;99.90;;;;;;5036010;28;20427;-65
2022/10/24 11:34:13;;;;;;;21.70;4.72;;;14.50;99.90;;;;;;5045819;28;20108;-63
2022/10/24 11:36:59;;;;;;;31.75;5.55;;;;;;;;;;5048776;28;20071;-62
2022/10/24 11:39:40;;;;;;;14.77;4.20;;;;;;;;;;5047027;28;20047;-65
2022/10/24 11:42:24;;;;;;;17.50;4.50;;;13.20;99.90;;;;;;5044234;28;20578;-66
2022/10/24 11:44:56;;;;;;;13.00;3.77;;;;;;;;;;5035460;28;20045;-65
2022/10/24 11:47:25;;;;;;;15.55;3.80;;;13.90;99.90;;;;;;5049927;28;20276;-66
2022/10/24 11:50:00;;;;;;;17.77;4.05;;;;;;;;;;5031897;28;20037;-66
2022/10/24 11:52:32;;;;;;;12.38;2.70;;;;;;;;;;5043435;28;20028;-64
2022/10/24 11:55:21;;;;;;;11.02;2.88;;;14.10;99.90;;;;;;5039420;28;20438;-64
2022/10/24 11:57:58;;;;;;;13.50;3.40;;;;;;;;;;5034584;28;20044;-65
2022/10/24 12:00:52;;;;;;;10.75;2.88;;;14.40;99.90;;;;;;5039657;28;20044;-65
2022/10/24 12:03:20;;;;;;;10.18;2.58;;;;;;;;;;5043541;28;20039;-66
2022/10/24 12:05:53;;;;;;;11.45;2.50;;;;;;;;;;5039248;28;20049;-64
2022/10/24 12:08:47;;;;;;;12.15;2.63;;;14.10;99.90;;;;;;5034791;28;20038;-63
2022/10/24 12:11:33;;;;;;;13.82;2.60;;;13.90;99.90;;;;;;5033389;28;20040;-65
2022/10/24 12:14:17;;;;;;;11.25;2.17;;;;;;;;;;5035873;28;20030;-63
2022/10/24 12:16:46;;;;;;;10.57;2.30;;;;;;;;;;5032260;28;20038;-63
2022/10/24 12:19:17;;;;;;;9.77;3.17;;;;;;;;;;5039863;28;20479;-63
2022/10/24 12:21:57;;;;;;;10.57;2.28;;;15.00;99.90;;;;;;5032895;28;20060;-64
2022/10/24 12:24:33;;;;;;;10.90;2.30;;;14.10;99.90;;;;;;5036387;28;20064;-63
2022/10/24 12:27:01;;;;;;;8.60;2.30;;;15.10;99.90;;;;;;5036726;28;20037;-63
2022/10/24 12:29:30;;;;;;;8.27;2.22;;;;;;;;;;5038871;28;20053;-63
2022/10/24 12:31:56;;;;;;;9.30;1.90;;;;;;;;;;5037874;28;20399;-64
2022/10/24 12:34:23;;;;;;;9.88;2.00;;;15.20;99.90;;;;;;5036755;28;20498;-64
2022/10/24 12:37:18;;;;;;;9.30;2.40;;;14.80;99.90;;;;;;5041456;28;20491;-64
2022/10/24 12:39:46;;;;;;;16.70;2.60;;;;;;;;;;5037761;28;20037;-63
2022/10/24 12:42:13;;;;;;;7.82;1.83;;;;;;;;;;5040458;28;20052;-64
2022/10/24 12:44:40;;;;;;;9.38;2.92;;;;;;;;;;5039104;28;20452;-64
2022/10/24 12:47:35;;;;;;;8.57;1.90;;;;;;;;;;5053508;28;20072;-63
2022/10/24 12:50:19;;;;;;;;;;;16.80;99.90;;;;;;5016646;28;20500;-63
2022/10/24 12:52:45;;;;;;;11.93;2.80;;;16.40;99.90;;;;;;5044458;28;20345;-63
2022/10/24 12:55:49;;;;;;;10.10;2.20;;;15.50;99.90;;;;;;5040852;28;20026;-64
2022/10/24 12:58:37;;;;;;;14.52;2.22;;;16.00;99.90;;;;;;4955516;28;20121;-64
2022/10/24 13:01:05;;;;;;;14.18;2.10;;;;;;;;;;5035918;28;20053;-64
2022/10/24 13:03:55;;;;;;;9.63;2.25;;;15.50;99.90;;;;;;5042550;28;20045;-64
2022/10/24 13:06:44;;;;;;;7.50;1.67;;;15.10;99.90;;;;;;5035662;28;20116;-65
2022/10/24 13:09:28;;;;;;;10.80;1.90;;;;;;;;;;5032456;28;20042;-64
2022/10/24 13:12:30;;;;;;;7.05;2.00;;;;;;;;;;5038009;28;20033;-64
2022/10/24 13:15:14;;;;;;;8.30;1.70;;;;;;;;;;4987309;28;20090;-64
2022/10/24 13:17:58;;;;;;;6.32;1.85;;;14.10;99.90;;;;;;5034761;28;20103;-65
2022/10/24 13:20:28;;;;;;;9.95;2.17;;;13.60;99.90;;;;;;5040234;28;20037;-65
2022/10/24 13:23:02;;;;;;;11.05;2.50;;;13.30;99.90;;;;;;5048847;28;20128;-66
2022/10/24 13:25:34;;;;;;;12.40;2.15;;;;;;;;;;5043814;28;20048;-63
2022/10/24 13:28:18;;;;;;;13.02;2.47;;;;;;;;;;5048152;28;20034;-64
2022/10/24 13:30:45;;;;;;;9.95;2.25;;;13.90;99.90;;;;;;5038791;28;20037;-66
2022/10/24 13:33:32;;;;;;;13.88;2.20;;;13.90;99.90;;;;;;5035365;28;20368;-63